sensor_id;sensor_type;location;lat;lon;timestamp;pressure;altitude;pressure_sealevel;temperature;humidity
78016;BME280;67223;51.102;5.882;2023-03-21T00:01:02;101581.63;;;9.96;72.21
78016;BME280;67223;51.102;5.882;2023-03-21T00:03:29;101575.94;;;9.87;72.51
78016;BME280;67223;51.102;5.882;2023-03-21T00:05:55;101579.28;;;10.04;72.28
78016;BME280;67223;51.102;5.882;2023-03-21T00:08:21;101577.88;;;9.98;72.93
78016;BME280;67223;51.102;5.882;2023-03-21T00:10:54;101589.44;;;9.99;72.43
78016;BME280;67223;51.102;5.882;2023-03-21T00:13:20;101581.50;;;9.97;72.37
78016;BME280;67223;51.102;5.882;2023-03-21T00:15:45;101579.81;;;9.96;72.35
78016;BME280;67223;51.102;5.882;2023-03-21T00:18:22;101582.81;;;10.04;72.98
78016;BME280;67223;51.102;5.882;2023-03-21T00:20:57;101580.16;;;10.04;72.36
78016;BME280;67223;51.102;5.882;2023-03-21T00:23:24;101577.50;;;10.04;72.55
78016;BME280;67223;51.102;5.882;2023-03-21T00:25:49;101571.28;;;9.91;72.56
78016;BME280;67223;51.102;5.882;2023-03-21T00:28:15;101567.59;;;9.79;73.63
78016;BME280;67223;51.102;5.882;2023-03-21T00:30:40;101564.78;;;9.95;73.67
78016;BME280;67223;51.102;5.882;2023-03-21T00:33:06;101559.63;;;9.92;73.90
78016;BME280;67223;51.102;5.882;2023-03-21T00:35:31;101561.25;;;9.94;73.83
78016;BME280;67223;51.102;5.882;2023-03-21T00:37:57;101551.53;;;9.93;74.40
78016;BME280;67223;51.102;5.882;2023-03-21T00:40:22;101550.34;;;9.85;74.68
78016;BME280;67223;51.102;5.882;2023-03-21T00:42:48;101544.63;;;9.77;74.38
78016;BME280;67223;51.102;5.882;2023-03-21T00:45:13;101537.41;;;9.79;74.48
78016;BME280;67223;51.102;5.882;2023-03-21T00:47:39;101521.06;;;9.71;74.66
78016;BME280;67223;51.102;5.882;2023-03-21T00:50:05;101527.69;;;9.78;75.04
78016;BME280;67223;51.102;5.882;2023-03-21T00:52:31;101521.25;;;9.68;75.25
78016;BME280;67223;51.102;5.882;2023-03-21T00:54:57;101520.56;;;9.51;75.41
78016;BME280;67223;51.102;5.882;2023-03-21T00:57:22;101519.81;;;9.49;75.68
78016;BME280;67223;51.102;5.882;2023-03-21T00:59:48;101513.72;;;9.47;75.57
78016;BME280;67223;51.102;5.882;2023-03-21T01:02:13;101514.41;;;9.37;75.99
78016;BME280;67223;51.102;5.882;2023-03-21T01:04:48;101511.88;;;9.35;76.13
78016;BME280;67223;51.102;5.882;2023-03-21T01:07:14;101518.41;;;9.44;76.14
78016;BME280;67223;51.102;5.882;2023-03-21T01:09:39;101512.31;;;9.42;76.07
78016;BME280;67223;51.102;5.882;2023-03-21T01:12:05;101502.41;;;9.44;75.96
78016;BME280;67223;51.102;5.882;2023-03-21T01:14:30;101506.44;;;9.37;75.95
78016;BME280;67223;51.102;5.882;2023-03-21T01:16:55;101503.19;;;9.32;76.29
78016;BME280;67223;51.102;5.882;2023-03-21T01:19:23;101507.03;;;9.28;76.45
78016;BME280;67223;51.102;5.882;2023-03-21T01:21:52;101502.09;;;9.22;76.55
78016;BME280;67223;51.102;5.882;2023-03-21T01:24:18;101500.50;;;9.19;76.36
78016;BME280;67223;51.102;5.882;2023-03-21T01:26:43;101496.31;;;9.15;76.19
78016;BME280;67223;51.102;5.882;2023-03-21T01:29:09;101487.88;;;9.08;76.91
78016;BME280;67223;51.102;5.882;2023-03-21T01:31:35;101485.19;;;9.08;76.88
78016;BME280;67223;51.102;5.882;2023-03-21T01:34:00;101481.69;;;9.08;76.94
78016;BME280;67223;51.102;5.882;2023-03-21T01:36:26;101476.34;;;9.08;77.11
78016;BME280;67223;51.102;5.882;2023-03-21T01:38:52;101472.75;;;9.09;76.51
78016;BME280;67223;51.102;5.882;2023-03-21T01:41:34;101475.31;;;9.11;76.95
78016;BME280;67223;51.102;5.882;2023-03-21T01:44:00;101479.03;;;9.08;77.09
78016;BME280;67223;51.102;5.882;2023-03-21T01:51:35;101462.44;;;9.17;76.68
78016;BME280;67223;51.102;5.882;2023-03-21T01:54:03;101470.88;;;9.24;76.01
78016;BME280;67223;51.102;5.882;2023-03-21T01:56:33;101466.63;;;9.21;76.49
78016;BME280;67223;51.102;5.882;2023-03-21T01:59:04;101465.88;;;9.32;76.28
78016;BME280;67223;51.102;5.882;2023-03-21T02:01:32;101466.75;;;9.32;75.89
78016;BME280;67223;51.102;5.882;2023-03-21T02:03:59;101461.22;;;9.35;76.57
78016;BME280;67223;51.102;5.882;2023-03-21T02:06:59;101461.41;;;9.32;76.53
78016;BME280;67223;51.102;5.882;2023-03-21T02:09:31;101454.19;;;9.34;76.33
78016;BME280;67223;51.102;5.882;2023-03-21T02:11:58;101451.53;;;9.34;76.67
78016;BME280;67223;51.102;5.882;2023-03-21T02:14:24;101445.34;;;9.34;76.68
78016;BME280;67223;51.102;5.882;2023-03-21T02:26:08;101429.66;;;9.29;77.04
78016;BME280;67223;51.102;5.882;2023-03-21T02:28:32;101427.63;;;9.33;76.75
78016;BME280;67223;51.102;5.882;2023-03-21T02:31:13;101419.94;;;9.28;76.89
78016;BME280;67223;51.102;5.882;2023-03-21T02:36:26;101419.63;;;9.33;77.03
78016;BME280;67223;51.102;5.882;2023-03-21T02:38:56;101411.44;;;9.36;76.97
78016;BME280;67223;51.102;5.882;2023-03-21T02:41:46;101412.59;;;9.32;76.89
78016;BME280;67223;51.102;5.882;2023-03-21T02:44:21;101405.81;;;9.40;76.63
78016;BME280;67223;51.102;5.882;2023-03-21T02:46:54;101411.13;;;9.40;76.33
78016;BME280;67223;51.102;5.882;2023-03-21T02:49:24;101408.03;;;9.34;76.73
78016;BME280;67223;51.102;5.882;2023-03-21T02:51:50;101412.22;;;9.50;76.40
78016;BME280;67223;51.102;5.882;2023-03-21T02:54:18;101406.66;;;9.54;76.56
78016;BME280;67223;51.102;5.882;2023-03-21T02:56:46;101403.63;;;9.33;76.99
78016;BME280;67223;51.102;5.882;2023-03-21T02:59:14;101406.44;;;9.31;77.66
78016;BME280;67223;51.102;5.882;2023-03-21T03:04:19;101402.78;;;9.32;79.38
78016;BME280;67223;51.102;5.882;2023-03-21T03:09:46;101392.28;;;9.17;79.41
78016;BME280;67223;51.102;5.882;2023-03-21T03:12:37;101397.13;;;9.24;79.81
78016;BME280;67223;51.102;5.882;2023-03-21T03:15:39;101394.47;;;9.24;80.67
78016;BME280;67223;51.102;5.882;2023-03-21T03:26:06;101386.47;;;9.24;79.66
78016;BME280;67223;51.102;5.882;2023-03-21T03:28:38;101383.47;;;9.16;80.28
78016;BME280;67223;51.102;5.882;2023-03-21T03:31:06;101386.56;;;9.23;80.56
78016;BME280;67223;51.102;5.882;2023-03-21T03:33:34;101383.34;;;9.18;80.78
78016;BME280;67223;51.102;5.882;2023-03-21T03:36:03;101382.47;;;9.17;80.54
78016;BME280;67223;51.102;5.882;2023-03-21T03:38:30;101377.81;;;9.21;80.80
78016;BME280;67223;51.102;5.882;2023-03-21T03:40:58;101373.81;;;9.40;81.92
78016;BME280;67223;51.102;5.882;2023-03-21T03:43:35;101368.25;;;9.31;80.44
78016;BME280;67223;51.102;5.882;2023-03-21T03:46:16;101367.56;;;9.15;80.42
78016;BME280;67223;51.102;5.882;2023-03-21T03:48:49;101371.03;;;9.02;81.18
78016;BME280;67223;51.102;5.882;2023-03-21T03:51:26;101363.50;;;9.09;81.81
78016;BME280;67223;51.102;5.882;2023-03-21T03:53:59;101372.66;;;9.05;81.23
78016;BME280;67223;51.102;5.882;2023-03-21T03:56:26;101364.38;;;9.10;81.37
78016;BME280;67223;51.102;5.882;2023-03-21T03:58:53;101357.97;;;9.12;81.29
78016;BME280;67223;51.102;5.882;2023-03-21T04:01:18;101363.72;;;9.06;82.06
78016;BME280;67223;51.102;5.882;2023-03-21T04:03:46;101369.91;;;9.06;81.53
78016;BME280;67223;51.102;5.882;2023-03-21T04:06:13;101367.44;;;9.03;81.35
78016;BME280;67223;51.102;5.882;2023-03-21T04:08:39;101359.66;;;9.00;82.18
78016;BME280;67223;51.102;5.882;2023-03-21T04:11:05;101359.84;;;8.97;81.91
78016;BME280;67223;51.102;5.882;2023-03-21T04:13:31;101355.19;;;9.01;82.09
78016;BME280;67223;51.102;5.882;2023-03-21T04:15:57;101356.22;;;8.98;81.97
78016;BME280;67223;51.102;5.882;2023-03-21T04:18:23;101358.88;;;8.98;82.00
78016;BME280;67223;51.102;5.882;2023-03-21T04:20:48;101361.94;;;8.92;81.87
78016;BME280;67223;51.102;5.882;2023-03-21T04:23:16;101359.34;;;9.05;81.83
78016;BME280;67223;51.102;5.882;2023-03-21T04:25:44;101364.84;;;9.02;81.98
78016;BME280;67223;51.102;5.882;2023-03-21T04:28:10;101362.41;;;8.99;82.00
78016;BME280;67223;51.102;5.882;2023-03-21T04:30:35;101368.19;;;9.05;81.76
78016;BME280;67223;51.102;5.882;2023-03-21T04:33:01;101365.53;;;9.05;82.03
78016;BME280;67223;51.102;5.882;2023-03-21T04:35:26;101353.47;;;9.13;81.63
78016;BME280;67223;51.102;5.882;2023-03-21T04:37:53;101362.78;;;9.20;80.78
78016;BME280;67223;51.102;5.882;2023-03-21T04:40:18;101365.69;;;9.29;80.32
78016;BME280;67223;51.102;5.882;2023-03-21T04:42:45;101358.56;;;9.42;79.33
78016;BME280;67223;51.102;5.882;2023-03-21T04:45:11;101361.66;;;9.49;79.24
78016;BME280;67223;51.102;5.882;2023-03-21T04:47:36;101354.44;;;9.51;78.75
78016;BME280;67223;51.102;5.882;2023-03-21T04:50:02;101367.31;;;9.44;79.02
78016;BME280;67223;51.102;5.882;2023-03-21T04:52:28;101360.16;;;9.58;78.59
78016;BME280;67223;51.102;5.882;2023-03-21T04:54:53;101362.84;;;9.58;78.74
78016;BME280;67223;51.102;5.882;2023-03-21T04:57:19;101367.94;;;9.48;78.73
78016;BME280;67223;51.102;5.882;2023-03-21T04:59:44;101362.28;;;9.52;78.72
78016;BME280;67223;51.102;5.882;2023-03-21T05:02:10;101358.88;;;9.38;79.85
78016;BME280;67223;51.102;5.882;2023-03-21T05:04:37;101357.81;;;9.40;80.30
78016;BME280;67223;51.102;5.882;2023-03-21T05:07:03;101360.34;;;9.29;81.09
78016;BME280;67223;51.102;5.882;2023-03-21T05:09:28;101354.41;;;9.38;80.89
78016;BME280;67223;51.102;5.882;2023-03-21T05:11:54;101349.47;;;9.32;81.18
78016;BME280;67223;51.102;5.882;2023-03-21T05:14:22;101352.81;;;9.36;81.16
78016;BME280;67223;51.102;5.882;2023-03-21T05:16:48;101349.38;;;9.34;81.00
78016;BME280;67223;51.102;5.882;2023-03-21T05:19:21;101344.38;;;9.29;81.06
78016;BME280;67223;51.102;5.882;2023-03-21T05:21:48;101347.97;;;9.28;80.86
78016;BME280;67223;51.102;5.882;2023-03-21T05:24:16;101347.34;;;9.37;80.60
78016;BME280;67223;51.102;5.882;2023-03-21T05:26:43;101338.94;;;9.31;80.27
78016;BME280;67223;51.102;5.882;2023-03-21T05:29:15;101347.88;;;9.30;80.85
78016;BME280;67223;51.102;5.882;2023-03-21T05:31:42;101340.44;;;9.35;80.90
78016;BME280;67223;51.102;5.882;2023-03-21T05:34:07;101329.88;;;9.33;81.29
78016;BME280;67223;51.102;5.882;2023-03-21T05:36:33;101335.97;;;9.35;81.37
78016;BME280;67223;51.102;5.882;2023-03-21T05:39:00;101343.19;;;9.33;81.90
78016;BME280;67223;51.102;5.882;2023-03-21T05:41:26;101341.47;;;9.32;80.86
78016;BME280;67223;51.102;5.882;2023-03-21T05:43:51;101347.16;;;9.40;80.92
78016;BME280;67223;51.102;5.882;2023-03-21T05:46:17;101338.19;;;9.41;80.87
78016;BME280;67223;51.102;5.882;2023-03-21T05:48:42;101347.16;;;9.40;80.60
78016;BME280;67223;51.102;5.882;2023-03-21T05:51:07;101351.00;;;9.49;79.96
78016;BME280;67223;51.102;5.882;2023-03-21T05:53:33;101338.53;;;9.49;79.76
78016;BME280;67223;51.102;5.882;2023-03-21T05:55:58;101344.41;;;9.55;78.87
78016;BME280;67223;51.102;5.882;2023-03-21T05:58:24;101341.63;;;9.56;79.82
78016;BME280;67223;51.102;5.882;2023-03-21T06:00:49;101333.28;;;9.48;79.29
78016;BME280;67223;51.102;5.882;2023-03-21T06:03:15;101335.09;;;9.47;79.39
78016;BME280;67223;51.102;5.882;2023-03-21T06:05:41;101341.28;;;9.48;79.50
78016;BME280;67223;51.102;5.882;2023-03-21T06:08:06;101325.38;;;9.46;79.83
78016;BME280;67223;51.102;5.882;2023-03-21T06:10:32;101327.09;;;9.47;79.68
78016;BME280;67223;51.102;5.882;2023-03-21T06:12:57;101325.84;;;9.40;80.27
78016;BME280;67223;51.102;5.882;2023-03-21T06:15:22;101325.38;;;9.46;79.99
78016;BME280;67223;51.102;5.882;2023-03-21T06:17:49;101328.06;;;9.46;80.10
78016;BME280;67223;51.102;5.882;2023-03-21T06:20:14;101329.22;;;9.42;80.60
78016;BME280;67223;51.102;5.882;2023-03-21T06:22:39;101324.34;;;9.49;80.81
78016;BME280;67223;51.102;5.882;2023-03-21T06:25:07;101325.38;;;9.46;80.13
78016;BME280;67223;51.102;5.882;2023-03-21T06:27:33;101316.44;;;9.47;80.90
78016;BME280;67223;51.102;5.882;2023-03-21T06:29:59;101318.25;;;9.47;80.47
78016;BME280;67223;51.102;5.882;2023-03-21T06:32:25;101319.63;;;9.52;80.30
78016;BME280;67223;51.102;5.882;2023-03-21T06:34:51;101316.78;;;9.56;80.04
78016;BME280;67223;51.102;5.882;2023-03-21T06:37:17;101319.44;;;9.56;80.27
78016;BME280;67223;51.102;5.882;2023-03-21T06:39:42;101321.13;;;9.57;80.07
78016;BME280;67223;51.102;5.882;2023-03-21T06:42:08;101314.84;;;9.58;80.04
78016;BME280;67223;51.102;5.882;2023-03-21T06:44:33;101311.53;;;9.54;80.05
78016;BME280;67223;51.102;5.882;2023-03-21T06:46:58;101316.13;;;9.52;79.87
78016;BME280;67223;51.102;5.882;2023-03-21T06:49:24;101317.94;;;9.51;80.02
78016;BME280;67223;51.102;5.882;2023-03-21T06:51:50;101320.59;;;9.51;79.86
78016;BME280;67223;51.102;5.882;2023-03-21T06:54:16;101320.59;;;9.51;79.91
78016;BME280;67223;51.102;5.882;2023-03-21T06:56:43;101323.25;;;9.51;79.25
78016;BME280;67223;51.102;5.882;2023-03-21T06:59:08;101307.06;;;9.55;78.90
78016;BME280;67223;51.102;5.882;2023-03-21T07:01:34;101324.88;;;9.54;79.53
78016;BME280;67223;51.102;5.882;2023-03-21T07:03:59;101329.34;;;9.54;79.57
78016;BME280;67223;51.102;5.882;2023-03-21T07:06:25;101321.34;;;9.54;79.70
78016;BME280;67223;51.102;5.882;2023-03-21T07:08:51;101323.25;;;9.51;80.34
78016;BME280;67223;51.102;5.882;2023-03-21T07:11:18;101317.94;;;9.51;80.84
78016;BME280;67223;51.102;5.882;2023-03-21T07:13:43;101321.78;;;9.47;81.25
78016;BME280;67223;51.102;5.882;2023-03-21T07:16:09;101327.22;;;9.46;81.15
78016;BME280;67223;51.102;5.882;2023-03-21T07:18:34;101327.97;;;9.48;81.55
78016;BME280;67223;51.102;5.882;2023-03-21T07:21:00;101335.22;;;9.46;81.87
78016;BME280;67223;51.102;5.882;2023-03-21T07:23:26;101329.78;;;9.47;81.95
78016;BME280;67223;51.102;5.882;2023-03-21T07:25:52;101334.91;;;9.50;81.98
78016;BME280;67223;51.102;5.882;2023-03-21T07:28:19;101331.16;;;9.53;82.38
78016;BME280;67223;51.102;5.882;2023-03-21T07:30:45;101335.63;;;9.52;81.81
78016;BME280;67223;51.102;5.882;2023-03-21T07:33:15;101334.59;;;9.55;82.21
78016;BME280;67223;51.102;5.882;2023-03-21T07:35:40;101336.94;;;9.60;82.33
78016;BME280;67223;51.102;5.882;2023-03-21T07:38:06;101335.97;;;9.61;81.96
78016;BME280;67223;51.102;5.882;2023-03-21T07:40:32;101338.66;;;9.61;82.08
78016;BME280;67223;51.102;5.882;2023-03-21T07:42:57;101346.41;;;9.64;81.79
78016;BME280;67223;51.102;5.882;2023-03-21T07:45:23;101337.06;;;9.71;82.28
78016;BME280;67223;51.102;5.882;2023-03-21T07:47:50;101344.19;;;9.70;82.06
78016;BME280;67223;51.102;5.882;2023-03-21T07:50:15;101343.25;;;9.71;82.34
78016;BME280;67223;51.102;5.882;2023-03-21T07:52:41;101338.53;;;9.75;81.97
78016;BME280;67223;51.102;5.882;2023-03-21T07:55:07;101342.91;;;9.76;82.13
78016;BME280;67223;51.102;5.882;2023-03-21T07:57:32;101349.84;;;9.78;82.25
78016;BME280;67223;51.102;5.882;2023-03-21T07:59:58;101345.03;;;9.83;82.08
78016;BME280;67223;51.102;5.882;2023-03-21T08:02:23;101343.53;;;9.92;81.54
78016;BME280;67223;51.102;5.882;2023-03-21T08:04:49;101346.09;;;9.93;80.62
78016;BME280;67223;51.102;5.882;2023-03-21T08:07:14;101343.72;;;10.02;79.91
78016;BME280;67223;51.102;5.882;2023-03-21T08:09:42;101344.47;;;10.04;78.91
78016;BME280;67223;51.102;5.882;2023-03-21T08:12:07;101345.63;;;10.12;78.38
78016;BME280;67223;51.102;5.882;2023-03-21T08:14:33;101351.94;;;10.11;78.79
78016;BME280;67223;51.102;5.882;2023-03-21T08:17:00;101347.78;;;10.07;77.98
78016;BME280;67223;51.102;5.882;2023-03-21T08:19:25;101353.97;;;10.08;78.18
78016;BME280;67223;51.102;5.882;2023-03-21T08:21:51;101350.56;;;10.06;78.23
78016;BME280;67223;51.102;5.882;2023-03-21T08:24:17;101345.56;;;10.01;78.78
78016;BME280;67223;51.102;5.882;2023-03-21T08:26:43;101346.63;;;9.99;78.67
78016;BME280;67223;51.102;5.882;2023-03-21T08:29:10;101339.56;;;9.98;79.28
78016;BME280;67223;51.102;5.882;2023-03-21T08:31:36;101339.69;;;9.96;79.63
78016;BME280;67223;51.102;5.882;2023-03-21T08:34:01;101336.50;;;9.91;80.09
78016;BME280;67223;51.102;5.882;2023-03-21T08:36:27;101338.31;;;9.90;80.23
78016;BME280;67223;51.102;5.882;2023-03-21T08:38:54;101326.66;;;9.91;80.53
78016;BME280;67223;51.102;5.882;2023-03-21T08:41:28;101332.22;;;9.88;81.14
78016;BME280;67223;51.102;5.882;2023-03-21T08:43:54;101328.19;;;9.96;81.04
78016;BME280;67223;51.102;5.882;2023-03-21T08:46:19;101327.31;;;9.95;80.25
78016;BME280;67223;51.102;5.882;2023-03-21T08:48:45;101329.22;;;9.93;80.49
78016;BME280;67223;51.102;5.882;2023-03-21T08:51:10;101330.50;;;10.00;80.03
78016;BME280;67223;51.102;5.882;2023-03-21T08:53:36;101324.31;;;10.00;80.24
78016;BME280;67223;51.102;5.882;2023-03-21T08:56:02;101329.84;;;9.97;80.58
78016;BME280;67223;51.102;5.882;2023-03-21T08:58:27;101327.31;;;9.95;80.26
78016;BME280;67223;51.102;5.882;2023-03-21T09:00:53;101323.16;;;9.91;80.33
78016;BME280;67223;51.102;5.882;2023-03-21T09:03:18;101321.88;;;9.84;80.75
78016;BME280;67223;51.102;5.882;2023-03-21T09:05:44;101320.25;;;9.81;81.12
78016;BME280;67223;51.102;5.882;2023-03-21T09:08:10;101316.97;;;9.78;81.38
78016;BME280;67223;51.102;5.882;2023-03-21T09:10:37;101313.78;;;9.73;81.71
78016;BME280;67223;51.102;5.882;2023-03-21T09:13:03;101316.13;;;9.77;82.01
78016;BME280;67223;51.102;5.882;2023-03-21T09:15:28;101308.97;;;9.78;82.18
78016;BME280;67223;51.102;5.882;2023-03-21T09:17:54;101302.38;;;9.71;82.01
78016;BME280;67223;51.102;5.882;2023-03-21T09:20:24;101309.81;;;9.78;82.32
78016;BME280;67223;51.102;5.882;2023-03-21T09:22:55;101303.53;;;9.79;82.86
78016;BME280;67223;51.102;5.882;2023-03-21T09:25:21;101299.44;;;9.86;82.48
78016;BME280;67223;51.102;5.882;2023-03-21T09:27:48;101295.97;;;9.86;82.43
78016;BME280;67223;51.102;5.882;2023-03-21T09:30:19;101298.16;;;9.92;82.68
78016;BME280;67223;51.102;5.882;2023-03-21T09:32:47;101293.59;;;9.94;82.85
78016;BME280;67223;51.102;5.882;2023-03-21T09:35:16;101294.00;;;10.01;82.31
78016;BME280;67223;51.102;5.882;2023-03-21T09:37:43;101281.59;;;10.12;81.95
78016;BME280;67223;51.102;5.882;2023-03-21T09:40:22;101280.16;;;10.32;81.63
78016;BME280;67223;51.102;5.882;2023-03-21T09:43:04;101276.03;;;10.52;81.00
78016;BME280;67223;51.102;5.882;2023-03-21T09:49:03;101270.44;;;10.78;79.29
78016;BME280;67223;51.102;5.882;2023-03-21T09:51:37;101271.06;;;10.82;78.62
78016;BME280;67223;51.102;5.882;2023-03-21T09:54:19;101259.69;;;10.91;78.53
78016;BME280;67223;51.102;5.882;2023-03-21T09:56:48;101261.84;;;10.86;77.58
78016;BME280;67223;51.102;5.882;2023-03-21T09:59:27;101260.94;;;10.98;77.53
78016;BME280;67223;51.102;5.882;2023-03-21T10:01:56;101253.50;;;11.02;76.95
78016;BME280;67223;51.102;5.882;2023-03-21T10:04:22;101247.81;;;11.06;77.34
78016;BME280;67223;51.102;5.882;2023-03-21T10:07:00;101246.28;;;11.15;77.66
78016;BME280;67223;51.102;5.882;2023-03-21T10:09:27;101245.09;;;11.30;76.70
78016;BME280;67223;51.102;5.882;2023-03-21T10:12:04;101241.34;;;11.44;76.57
78016;BME280;67223;51.102;5.882;2023-03-21T10:17:33;101237.19;;;11.62;76.31
78016;BME280;67223;51.102;5.882;2023-03-21T10:20:18;101230.88;;;11.52;75.14
78016;BME280;67223;51.102;5.882;2023-03-21T10:22:47;101227.47;;;11.61;74.70
78016;BME280;67223;51.102;5.882;2023-03-21T10:25:16;101222.63;;;11.55;73.13
78016;BME280;67223;51.102;5.882;2023-03-21T10:27:44;101226.88;;;11.57;71.73
78016;BME280;67223;51.102;5.882;2023-03-21T10:32:56;101217.97;;;11.68;71.11
78016;BME280;67223;51.102;5.882;2023-03-21T10:35:23;101223.34;;;11.68;70.59
78016;BME280;67223;51.102;5.882;2023-03-21T10:37:49;101222.88;;;11.74;70.41
78016;BME280;67223;51.102;5.882;2023-03-21T10:40:15;101220.56;;;11.70;70.14
78016;BME280;67223;51.102;5.882;2023-03-21T10:42:42;101214.88;;;11.74;70.63
78016;BME280;67223;51.102;5.882;2023-03-21T10:45:17;101221.41;;;11.81;70.37
78016;BME280;67223;51.102;5.882;2023-03-21T10:47:47;101225.91;;;11.92;69.58
78016;BME280;67223;51.102;5.882;2023-03-21T10:50:14;101221.50;;;11.91;69.41
78016;BME280;67223;51.102;5.882;2023-03-21T10:52:48;101216.41;;;11.99;69.49
78016;BME280;67223;51.102;5.882;2023-03-21T10:55:41;101214.81;;;11.96;69.81
78016;BME280;67223;51.102;5.882;2023-03-21T10:58:12;101208.22;;;12.00;68.76
78016;BME280;67223;51.102;5.882;2023-03-21T11:00:43;101207.03;;;12.04;68.92
78016;BME280;67223;51.102;5.882;2023-03-21T11:03:22;101210.19;;;12.10;68.97
78016;BME280;67223;51.102;5.882;2023-03-21T11:05:52;101200.44;;;12.08;68.88
78016;BME280;67223;51.102;5.882;2023-03-21T11:08:20;101216.72;;;12.17;69.81
78016;BME280;67223;51.102;5.882;2023-03-21T11:10:54;101219.06;;;12.10;68.47
78016;BME280;67223;51.102;5.882;2023-03-21T11:13:26;101212.47;;;12.14;68.15
78016;BME280;67223;51.102;5.882;2023-03-21T11:16:04;101206.16;;;12.15;67.66
78016;BME280;67223;51.102;5.882;2023-03-21T11:18:31;101215.63;;;12.19;67.76
78016;BME280;67223;51.102;5.882;2023-03-21T11:21:04;101218.91;;;12.23;66.55
78016;BME280;67223;51.102;5.882;2023-03-21T11:23:33;101221.59;;;12.12;65.26
78016;BME280;67223;51.102;5.882;2023-03-21T11:26:01;101225.78;;;12.04;64.51
78016;BME280;67223;51.102;5.882;2023-03-21T11:28:40;101219.69;;;12.02;64.27
78016;BME280;67223;51.102;5.882;2023-03-21T11:31:06;101224.28;;;12.00;63.99
78016;BME280;67223;51.102;5.882;2023-03-21T11:33:36;101223.22;;;12.03;63.51
78016;BME280;67223;51.102;5.882;2023-03-21T11:36:25;101213.06;;;12.18;63.47
78016;BME280;67223;51.102;5.882;2023-03-21T11:39:02;101224.63;;;12.29;63.58
78016;BME280;67223;51.102;5.882;2023-03-21T11:41:39;101210.16;;;12.52;64.23
78016;BME280;67223;51.102;5.882;2023-03-21T11:44:04;101214.66;;;12.52;64.17
78016;BME280;67223;51.102;5.882;2023-03-21T11:46:31;101213.50;;;12.45;63.13
78016;BME280;67223;51.102;5.882;2023-03-21T11:48:57;101205.72;;;12.31;62.11
78016;BME280;67223;51.102;5.882;2023-03-21T11:51:40;101205.00;;;12.29;62.55
78016;BME280;67223;51.102;5.882;2023-03-21T11:57:37;101203.34;;;12.48;62.40
78016;BME280;67223;51.102;5.882;2023-03-21T12:05:25;101194.19;;;12.51;61.71
78016;BME280;67223;51.102;5.882;2023-03-21T12:11:26;101187.56;;;12.66;61.27
78016;BME280;67223;51.102;5.882;2023-03-21T12:16:36;101178.78;;;13.26;61.74
78016;BME280;67223;51.102;5.882;2023-03-21T12:35:26;101138.91;;;13.43;59.84
78016;BME280;67223;51.102;5.882;2023-03-21T12:43:22;101141.09;;;13.58;59.29
78016;BME280;67223;51.102;5.882;2023-03-21T12:45:54;101137.88;;;13.74;59.22
78016;BME280;67223;51.102;5.882;2023-03-21T12:48:50;101121.38;;;13.78;59.21
78016;BME280;67223;51.102;5.882;2023-03-21T12:51:21;101121.25;;;13.90;58.92
78016;BME280;67223;51.102;5.882;2023-03-21T12:53:59;101104.63;;;13.56;58.42
78016;BME280;67223;51.102;5.882;2023-03-21T12:56:48;101104.59;;;13.46;58.46
78016;BME280;67223;51.102;5.882;2023-03-21T12:59:36;101111.13;;;13.53;59.00
78016;BME280;67223;51.102;5.882;2023-03-21T13:02:35;101106.81;;;13.91;58.15
78016;BME280;67223;51.102;5.882;2023-03-21T13:07:46;101109.81;;;13.97;58.03
78016;BME280;67223;51.102;5.882;2023-03-21T13:10:16;101093.41;;;13.91;57.25
78016;BME280;67223;51.102;5.882;2023-03-21T13:12:54;101100.88;;;13.87;57.23
78016;BME280;67223;51.102;5.882;2023-03-21T13:15:27;101102.72;;;13.96;57.50
78016;BME280;67223;51.102;5.882;2023-03-21T13:20:36;101089.31;;;14.15;56.07
78016;BME280;67223;51.102;5.882;2023-03-21T13:23:07;101079.28;;;14.08;54.65
78016;BME280;67223;51.102;5.882;2023-03-21T13:25:40;101081.97;;;14.46;56.69
78016;BME280;67223;51.102;5.882;2023-03-21T13:28:24;101091.28;;;14.52;56.68
78016;BME280;67223;51.102;5.882;2023-03-21T13:30:50;101092.72;;;14.27;55.39
78016;BME280;67223;51.102;5.882;2023-03-21T13:33:22;101080.41;;;14.34;56.22
78016;BME280;67223;51.102;5.882;2023-03-21T13:35:59;101095.69;;;14.34;55.88
78016;BME280;67223;51.102;5.882;2023-03-21T13:38:31;101093.56;;;14.08;54.62
78016;BME280;67223;51.102;5.882;2023-03-21T13:40:59;101084.94;;;14.34;55.19
78016;BME280;67223;51.102;5.882;2023-03-21T13:43:42;101093.84;;;14.25;54.83
78016;BME280;67223;51.102;5.882;2023-03-21T13:46:33;101090.91;;;14.37;55.57
78016;BME280;67223;51.102;5.882;2023-03-21T13:54:01;101093.13;;;14.32;54.51
78016;BME280;67223;51.102;5.882;2023-03-21T13:56:26;101082.22;;;14.62;55.15
78016;BME280;67223;51.102;5.882;2023-03-21T13:59:00;101068.47;;;14.65;54.23
78016;BME280;67223;51.102;5.882;2023-03-21T14:04:17;101060.63;;;14.54;53.25
78016;BME280;67223;51.102;5.882;2023-03-21T14:12:01;101058.63;;;14.56;54.04
78016;BME280;67223;51.102;5.882;2023-03-21T14:14:45;101046.47;;;14.52;53.63
78016;BME280;67223;51.102;5.882;2023-03-21T14:17:13;101049.78;;;14.83;54.68
78016;BME280;67223;51.102;5.882;2023-03-21T14:19:38;101043.81;;;14.80;53.79
78016;BME280;67223;51.102;5.882;2023-03-21T14:22:09;101052.00;;;14.41;53.54
78016;BME280;67223;51.102;5.882;2023-03-21T14:24:35;101053.81;;;14.31;54.50
78016;BME280;67223;51.102;5.882;2023-03-21T14:27:01;101047.03;;;14.27;55.08
78016;BME280;67223;51.102;5.882;2023-03-21T14:29:30;101042.09;;;14.32;55.19
78016;BME280;67223;51.102;5.882;2023-03-21T14:31:58;101025.13;;;14.32;55.32
78016;BME280;67223;51.102;5.882;2023-03-21T14:34:25;101022.00;;;14.46;54.70
78016;BME280;67223;51.102;5.882;2023-03-21T14:36:51;101035.88;;;14.41;55.48
78016;BME280;67223;51.102;5.882;2023-03-21T14:39:21;101026.97;;;14.41;54.48
78016;BME280;67223;51.102;5.882;2023-03-21T14:41:51;101028.63;;;14.51;53.51